Time,TemperatureF,DewpointF,PressureIn,WindDirection,WindDirectionDegrees,WindSpeedMPH,WindSpeedGustMPH,Humidity,HourlyPrecipIn,Conditions,Clouds,dailyrainin,SoftwareType,DateUTC
2013-01-23 00:05:00,4.3,1.3,29.72,NE,37,0.0,0.0,87,0.00,,,0.00,LWC V2.00 B2112,2013-01-23 09:05:00,
2013-01-23 00:14:00,4.8,1.6,29.71,WNW,301,0.0,0.0,86,0.00,,,0.00,LWC V2.00 B2112,2013-01-23 09:14:00,
2013-01-23 00:19:00,4.7,1.2,29.71,WNW,302,0.0,0.0,85,0.00,,,0.00,LWC V2.00 B2112,2013-01-23 09:19:00,
2013-01-23 00:24:00,4.7,1.5,29.71,WNW,302,0.0,0.0,86,0.00,,,0.00,LWC V2.00 B2112,2013-01-23 09:24:00,
2013-01-23 00:30:00,5.0,1.7,29.71,WNW,302,0.0,0.0,86,0.00,,,0.00,LWC V2.00 B2112,2013-01-23 09:30:00,
2013-01-23 00:39:00,5.5,2.2,29.71,East,101,0.0,0.0,86,0.00,,,0.00,LWC V2.00 B2112,2013-01-23 09:39:00,
2013-01-23 00:45:00,5.8,2.3,29.71,ENE,70,0.0,0.0,85,0.00,,,0.00,LWC V2.00 B2112,2013-01-23 09:45:00,
2013-01-23 00:54:00,6.2,2.4,29.71,SE,138,0.0,0.0,84,0.00,,,0.00,LWC V2.00 B2112,2013-01-23 09:54:00,
2013-01-23 00:59:00,6.1,2.3,29.71,ENE,63,0.0,0.0,84,0.00,,,0.00,LWC V2.00 B2112,2013-01-23 09:59:00,
2013-01-23 01:04:00,5.8,2.0,29.71,North,0,0.0,0.0,84,0.00,,,0.00,LWC V2.00 B2112,2013-01-23 10:04:00,
2013-01-23 01:09:00,5.6,1.8,29.71,North,355,0.0,0.0,84,0.00,,,0.00,LWC V2.00 B2112,2013-01-23 10:09:00,
2013-01-23 01:14:00,5.4,1.9,29.71,North,355,0.0,0.0,85,0.00,,,0.00,LWC V2.00 B2112,2013-01-23 10:14:00,
2013-01-23 01:19:00,4.9,1.1,29.71,North,0,0.0,0.0,84,0.00,,,0.00,LWC V2.00 B2112,2013-01-23 10:19:00,
2013-01-23 01:24:00,4.5,1.0,29.71,North,355,0.0,0.0,85,0.00,,,0.00,LWC V2.00 B2112,2013-01-23 10:24:00,
2013-01-23 01:30:00,4.1,0.9,29.71,North,0,0.0,0.0,86,0.00,,,0.00,LWC V2.00 B2112,2013-01-23 10:30:00,
2013-01-23 01:34:00,3.9,0.7,29.70,North,0,0.0,0.0,86,0.00,,,0.00,LWC V2.00 B2112,2013-01-23 10:34:00,
2013-01-23 01:39:00,3.6,0.4,29.70,North,355,0.0,0.0,86,0.00,,,0.00,LWC V2.00 B2112,2013-01-23 10:39:00,
2013-01-23 01:44:00,3.4,0.2,29.70,North,350,0.0,0.0,86,0.00,,,0.00,LWC V2.00 B2112,2013-01-23 10:44:00,
2013-01-23 01:49:00,3.3,0.3,29.70,North,350,0.0,0.0,87,0.00,,,0.00,LWC V2.00 B2112,2013-01-23 10:49:00,
2013-01-23 01:54:00,3.5,0.5,29.70,North,351,0.0,0.0,87,0.00,,,0.00,LWC V2.00 B2112,2013-01-23 10:54:00,
2013-01-23 01:59:00,3.6,0.6,29.70,North,350,0.0,0.0,87,0.00,,,0.00,LWC V2.00 B2112,2013-01-23 10:59:00,
2013-01-23 02:04:00,3.9,0.9,29.70,East,80,0.0,0.0,87,0.00,,,0.00,LWC V2.00 B2112,2013-01-23 11:04:00,
2013-01-23 02:09:00,4.4,1.4,29.70,West,275,0.0,0.0,87,0.00,,,0.00,LWC V2.00 B2112,2013-01-23 11:09:00,
2013-01-23 02:14:00,4.8,1.6,29.69,West,275,0.0,0.0,86,0.00,,,0.00,LWC V2.00 B2112,2013-01-23 11:14:00,
2013-01-23 02:19:00,5.0,1.5,29.69,WNW,299,0.0,0.0,85,0.00,,,0.00,LWC V2.00 B2112,2013-01-23 11:19:00,
2013-01-23 02:24:00,5.0,1.5,29.69,WNW,299,0.0,0.0,85,0.00,,,0.00,LWC V2.00 B2112,2013-01-23 11:24:00,
2013-01-23 02:29:00,5.1,1.6,29.69,ENE,67,0.0,0.0,85,0.00,,,0.00,LWC V2.00 B2112,2013-01-23 11:29:00,
2013-01-23 02:35:00,5.4,1.9,29.69,East,92,0.0,0.0,85,0.00,,,0.00,LWC V2.00 B2112,2013-01-23 11:35:00,
2013-01-23 02:44:00,6.0,2.2,29.68,NW,325,0.0,0.0,84,0.00,,,0.00,LWC V2.00 B2112,2013-01-23 11:44:00,
2013-01-23 02:49:00,6.0,2.2,29.68,South,185,0.0,0.0,84,0.00,,,0.00,LWC V2.00 B2112,2013-01-23 11:49:00,
2013-01-23 02:54:00,5.7,1.9,29.68,SE,134,0.0,0.0,84,0.00,,,0.00,LWC V2.00 B2112,2013-01-23 11:54:00,
2013-01-23 02:59:00,5.7,1.9,29.68,NNE,24,0.0,0.0,84,0.00,,,0.00,LWC V2.00 B2112,2013-01-23 11:59:00,
2013-01-23 03:04:00,5.6,1.8,29.68,NNE,23,0.0,0.0,84,0.00,,,0.00,LWC V2.00 B2112,2013-01-23 12:04:00,
2013-01-23 03:09:00,5.4,1.6,29.67,NNE,23,0.0,0.0,84,0.00,,,0.00,LWC V2.00 B2112,2013-01-23 12:09:00,
2013-01-23 03:14:00,5.2,1.2,29.67,NNW,340,0.0,0.0,83,0.00,,,0.00,LWC V2.00 B2112,2013-01-23 12:14:00,
2013-01-23 03:19:00,5.0,1.2,29.67,East,84,0.0,0.0,84,0.00,,,0.00,LWC V2.00 B2112,2013-01-23 12:19:00,
2013-01-23 03:24:00,5.0,1.2,29.67,East,84,0.0,0.0,84,0.00,,,0.00,LWC V2.00 B2112,2013-01-23 12:24:00,
2013-01-23 03:29:00,5.0,1.5,29.67,NW,317,0.0,0.0,85,0.00,,,0.00,LWC V2.00 B2112,2013-01-23 12:29:00,
2013-01-23 03:34:00,5.1,1.3,29.67,West,279,0.0,0.0,84,0.00,,,0.00,LWC V2.00 B2112,2013-01-23 12:34:00,
2013-01-23 03:39:00,5.1,1.3,29.67,West,280,0.0,0.0,84,0.00,,,0.00,LWC V2.00 B2112,2013-01-23 12:39:00,
2013-01-23 03:44:00,5.0,1.2,29.67,West,280,0.0,0.0,84,0.00,,,0.00,LWC V2.00 B2112,2013-01-23 12:44:00,
2013-01-23 03:49:00,5.1,1.3,29.67,NW,304,0.0,0.0,84,0.00,,,0.00,LWC V2.00 B2112,2013-01-23 12:49:00,
2013-01-23 03:54:00,5.3,1.5,29.67,NW,304,0.0,0.0,84,0.00,,,0.00,LWC V2.00 B2112,2013-01-23 12:54:00,
2013-01-23 03:59:00,5.5,1.5,29.67,NW,321,0.0,0.0,83,0.00,,,0.00,LWC V2.00 B2112,2013-01-23 12:59:00,
2013-01-23 04:04:00,5.6,1.3,29.66,WNW,303,0.0,0.0,82,0.00,,,0.00,LWC V2.00 B2112,2013-01-23 13:04:00,
2013-01-23 04:09:00,5.4,1.4,29.67,WNW,303,0.0,0.0,83,0.00,,,0.00,LWC V2.00 B2112,2013-01-23 13:09:00,
2013-01-23 04:14:00,5.2,1.2,29.67,WNW,303,0.0,0.0,83,0.00,,,0.00,LWC V2.00 B2112,2013-01-23 13:14:00,
2013-01-23 04:19:00,4.7,0.7,29.67,WNW,303,0.0,0.0,83,0.00,,,0.00,LWC V2.00 B2112,2013-01-23 13:19:00,
2013-01-23 04:24:00,4.3,0.6,29.67,WNW,303,0.0,0.0,84,0.00,,,0.00,LWC V2.00 B2112,2013-01-23 13:24:00,
2013-01-23 04:29:00,4.1,0.6,29.66,WNW,303,0.0,0.0,85,0.00,,,0.00,LWC V2.00 B2112,2013-01-23 13:29:00,
2013-01-23 04:34:00,4.0,0.5,29.66,WNW,303,0.0,0.0,85,0.00,,,0.00,LWC V2.00 B2112,2013-01-23 13:34:00,
2013-01-23 04:39:00,4.1,0.6,29.66,WNW,303,0.0,0.0,85,0.00,,,0.00,LWC V2.00 B2112,2013-01-23 13:39:00,
2013-01-23 04:44:00,4.1,0.9,29.66,WNW,303,0.0,0.0,86,0.00,,,0.00,LWC V2.00 B2112,2013-01-23 13:44:00,
2013-01-23 04:49:00,4.1,0.9,29.66,WNW,303,0.0,0.0,86,0.00,,,0.00,LWC V2.00 B2112,2013-01-23 13:49:00,
2013-01-23 04:55:00,4.2,1.0,29.66,WNW,303,0.0,0.0,86,0.00,,,0.00,LWC V2.00 B2112,2013-01-23 13:55:00,
2013-01-23 04:59:00,4.3,1.1,29.66,WNW,303,0.0,0.0,86,0.00,,,0.00,LWC V2.00 B2112,2013-01-23 13:59:00,
2013-01-23 05:04:00,4.6,1.4,29.66,WNW,303,0.0,0.0,86,0.00,,,0.00,LWC V2.00 B2112,2013-01-23 14:04:00,
2013-01-23 05:09:00,4.8,1.3,29.66,WNW,303,0.0,0.0,85,0.00,,,0.00,LWC V2.00 B2112,2013-01-23 14:09:00,
2013-01-23 05:14:00,4.7,1.2,29.66,WNW,303,0.0,0.0,85,0.00,,,0.00,LWC V2.00 B2112,2013-01-23 14:14:00,
2013-01-23 05:19:00,4.8,1.3,29.65,WNW,303,0.0,0.0,85,0.00,,,0.00,LWC V2.00 B2112,2013-01-23 14:19:00,
2013-01-23 05:24:00,4.7,1.2,29.65,WNW,303,0.0,0.0,85,0.00,,,0.00,LWC V2.00 B2112,2013-01-23 14:24:00,
2013-01-23 05:29:00,4.8,1.6,29.65,WNW,303,0.0,0.0,86,0.00,,,0.00,LWC V2.00 B2112,2013-01-23 14:29:00,
2013-01-23 05:34:00,4.9,1.6,29.65,WNW,303,0.0,0.0,86,0.00,,,0.00,LWC V2.00 B2112,2013-01-23 14:34:00,
2013-01-23 05:39:00,5.1,1.8,29.65,WNW,303,0.0,0.0,86,0.00,,,0.00,LWC V2.00 B2112,2013-01-23 14:39:00,
2013-01-23 05:44:00,5.2,1.9,29.65,WNW,303,0.0,0.0,86,0.00,,,0.00,LWC V2.00 B2112,2013-01-23 14:44:00,
2013-01-23 05:49:00,5.3,2.0,29.65,WNW,303,0.0,0.0,86,0.00,,,0.00,LWC V2.00 B2112,2013-01-23 14:49:00,
2013-01-23 05:54:00,5.5,2.2,29.65,WNW,303,0.0,0.0,86,0.00,,,0.00,LWC V2.00 B2112,2013-01-23 14:54:00,
2013-01-23 05:59:00,5.5,2.2,29.64,WNW,303,0.0,0.0,86,0.00,,,0.00,LWC V2.00 B2112,2013-01-23 14:59:00,
2013-01-23 06:04:00,5.8,2.5,29.64,WNW,303,0.0,0.0,86,0.00,,,0.00,LWC V2.00 B2112,2013-01-23 15:04:00,
2013-01-23 06:09:00,5.9,2.6,29.64,WNW,303,0.0,0.0,86,0.00,,,0.00,LWC V2.00 B2112,2013-01-23 15:09:00,
2013-01-23 06:14:00,6.1,2.8,29.64,SE,134,0.0,0.0,86,0.00,,,0.00,LWC V2.00 B2112,2013-01-23 15:14:00,
2013-01-23 06:19:00,6.0,2.5,29.64,SE,134,0.0,0.0,85,0.00,,,0.00,LWC V2.00 B2112,2013-01-23 15:19:00,
2013-01-23 06:24:00,6.1,2.6,29.64,SE,134,0.0,0.0,85,0.00,,,0.00,LWC V2.00 B2112,2013-01-23 15:24:00,
2013-01-23 06:29:00,6.6,3.1,29.64,SE,138,0.0,0.0,85,0.00,,,0.00,LWC V2.00 B2112,2013-01-23 15:29:00,
2013-01-23 06:34:00,7.1,3.6,29.64,West,271,0.0,0.0,85,0.00,,,0.00,LWC V2.00 B2112,2013-01-23 15:34:00,
2013-01-23 06:39:00,7.5,3.7,29.64,ENE,63,0.0,0.0,84,0.00,,,0.00,LWC V2.00 B2112,2013-01-23 15:39:00,
2013-01-23 06:44:00,8.0,3.7,29.64,ENE,67,0.0,0.0,82,0.00,,,0.00,LWC V2.00 B2112,2013-01-23 15:44:00,
2013-01-23 06:49:00,8.2,3.3,29.64,ESE,123,0.0,0.0,80,0.00,,,0.00,LWC V2.00 B2112,2013-01-23 15:49:00,
2013-01-23 06:54:00,7.9,3.0,29.63,NW,304,0.0,0.0,80,0.00,,,0.00,LWC V2.00 B2112,2013-01-23 15:54:00,
2013-01-23 06:59:00,7.5,2.9,29.64,South,188,0.0,0.0,81,0.00,,,0.00,LWC V2.00 B2112,2013-01-23 15:59:00,
2013-01-23 07:04:00,7.2,2.6,29.64,WSW,244,0.0,0.0,81,0.00,,,0.00,LWC V2.00 B2112,2013-01-23 16:04:00,
2013-01-23 07:09:00,6.9,2.3,29.63,WNW,297,0.0,0.0,81,0.00,,,0.00,LWC V2.00 B2112,2013-01-23 16:09:00,
2013-01-23 07:14:00,6.6,2.0,29.63,WNW,298,0.0,0.0,81,0.00,,,0.00,LWC V2.00 B2112,2013-01-23 16:14:00,
2013-01-23 07:19:00,6.3,1.7,29.63,WNW,299,0.0,0.0,81,0.00,,,0.00,LWC V2.00 B2112,2013-01-23 16:19:00,
2013-01-23 07:24:00,6.4,2.1,29.63,NW,323,0.0,0.0,82,0.00,,,0.00,LWC V2.00 B2112,2013-01-23 16:24:00,
2013-01-23 07:29:00,6.2,1.6,29.63,NW,323,0.0,0.0,81,0.00,,,0.00,LWC V2.00 B2112,2013-01-23 16:29:00,
2013-01-23 07:34:00,6.1,1.5,29.63,NE,37,0.0,0.0,81,0.00,,,0.00,LWC V2.00 B2112,2013-01-23 16:34:00,
2013-01-23 07:39:00,5.8,1.3,29.63,WSW,257,0.0,0.0,81,0.00,,,0.00,LWC V2.00 B2112,2013-01-23 16:39:00,
2013-01-23 07:44:00,5.8,1.5,29.63,West,259,0.0,0.0,82,0.00,,,0.00,LWC V2.00 B2112,2013-01-23 16:44:00,
2013-01-23 07:49:00,5.8,1.3,29.63,NNE,13,0.0,0.0,81,0.00,,,0.00,LWC V2.00 B2112,2013-01-23 16:49:00,
2013-01-23 07:54:00,5.9,1.4,29.63,NE,54,0.0,0.0,81,0.00,,,0.00,LWC V2.00 B2112,2013-01-23 16:54:00,
2013-01-23 07:59:00,5.8,1.3,29.63,SSE,153,0.0,0.0,81,0.00,,,0.00,LWC V2.00 B2112,2013-01-23 16:59:00,
2013-01-23 08:04:00,5.5,0.7,29.63,SSE,153,0.0,0.0,80,0.00,,,0.00,LWC V2.00 B2112,2013-01-23 17:04:00,
2013-01-23 08:09:00,5.7,0.9,29.62,ENE,69,0.0,0.0,80,0.00,,,0.00,LWC V2.00 B2112,2013-01-23 17:09:00,
2013-01-23 08:14:00,5.8,1.0,29.62,NW,317,0.0,0.0,80,0.00,,,0.00,LWC V2.00 B2112,2013-01-23 17:14:00,
2013-01-23 08:19:00,5.6,0.5,29.62,NW,323,0.0,0.0,79,0.00,,,0.00,LWC V2.00 B2112,2013-01-23 17:19:00,
2013-01-23 08:24:00,5.1,0.0,29.62,NE,37,0.0,0.0,79,0.00,,,0.00,LWC V2.00 B2112,2013-01-23 17:24:00,
2013-01-23 08:29:00,4.9,0.1,29.62,West,259,0.0,0.0,80,0.00,,,0.00,LWC V2.00 B2112,2013-01-23 17:29:00,
2013-01-23 08:34:00,4.8,0.0,29.63,ESE,105,0.0,0.0,80,0.00,,,0.00,LWC V2.00 B2112,2013-01-23 17:34:00,
2013-01-23 08:39:00,4.7,-0.1,29.63,WNW,288,0.0,0.0,80,0.00,,,0.00,LWC V2.00 B2112,2013-01-23 17:39:00,
2013-01-23 08:44:00,4.5,-0.3,29.63,WSW,245,0.0,0.0,80,0.00,,,0.00,LWC V2.00 B2112,2013-01-23 17:44:00,
2013-01-23 08:49:00,4.4,-0.4,29.63,WNW,298,0.0,0.0,80,0.00,,,0.00,LWC V2.00 B2112,2013-01-23 17:49:00,
2013-01-23 08:54:00,4.7,-0.1,29.62,SE,145,0.0,0.0,80,0.00,,,0.00,LWC V2.00 B2112,2013-01-23 17:54:00,
2013-01-23 08:59:00,5.1,0.0,29.63,SW,228,0.0,0.0,79,0.00,,,0.00,LWC V2.00 B2112,2013-01-23 17:59:00,
2013-01-23 09:04:00,4.9,-0.2,29.63,SE,132,0.0,0.0,79,0.00,,,0.00,LWC V2.00 B2112,2013-01-23 18:04:00,
2013-01-23 09:09:00,4.5,-0.5,29.63,SE,132,0.0,0.0,79,0.00,,,0.00,LWC V2.00 B2112,2013-01-23 18:09:00,
2013-01-23 09:14:00,4.4,-0.4,29.63,NE,37,0.0,0.0,80,0.00,,,0.00,LWC V2.00 B2112,2013-01-23 18:14:00,
2013-01-23 09:19:00,4.4,-0.1,29.63,NE,38,0.0,0.0,81,0.00,,,0.00,LWC V2.00 B2112,2013-01-23 18:19:00,
2013-01-23 09:24:00,4.4,-0.1,29.63,NNE,32,0.0,0.0,81,0.00,,,0.00,LWC V2.00 B2112,2013-01-23 18:24:00,
2013-01-23 09:29:00,4.4,-0.1,29.63,NNE,32,0.0,0.0,81,0.00,,,0.00,LWC V2.00 B2112,2013-01-23 18:29:00,
2013-01-23 09:34:00,4.4,0.1,29.63,NNE,32,0.0,0.0,82,0.00,,,0.00,LWC V2.00 B2112,2013-01-23 18:34:00,
2013-01-23 09:39:00,4.7,0.4,29.63,East,89,0.0,0.0,82,0.00,,,0.00,LWC V2.00 B2112,2013-01-23 18:39:00,
2013-01-23 09:44:00,5.1,0.8,29.63,East,88,0.0,0.0,82,0.00,,,0.00,LWC V2.00 B2112,2013-01-23 18:44:00,
2013-01-23 09:49:00,5.3,1.0,29.63,SSW,200,0.0,0.0,82,0.00,,,0.00,LWC V2.00 B2112,2013-01-23 18:49:00,
2013-01-23 09:54:00,5.9,1.4,29.63,East,86,0.0,0.0,81,0.00,,,0.00,LWC V2.00 B2112,2013-01-23 18:54:00,
2013-01-23 09:59:00,6.2,1.4,29.63,ENE,63,0.0,0.0,80,0.00,,,0.00,LWC V2.00 B2112,2013-01-23 18:59:00,
2013-01-23 10:04:00,6.5,1.4,29.63,SE,134,0.0,0.0,79,0.00,,,0.00,LWC V2.00 B2112,2013-01-23 19:04:00,
2013-01-23 10:09:00,6.7,1.0,29.63,ENE,62,0.0,0.0,77,0.00,,,0.00,LWC V2.00 B2112,2013-01-23 19:09:00,
2013-01-23 10:14:00,6.9,1.5,29.63,East,80,0.0,0.0,78,0.00,,,0.00,LWC V2.00 B2112,2013-01-23 19:14:00,
2013-01-23 10:19:00,7.1,1.2,29.63,ENE,78,0.0,0.0,76,0.00,,,0.00,LWC V2.00 B2112,2013-01-23 19:19:00,
2013-01-23 10:24:00,7.2,1.3,29.63,ESE,104,0.0,0.0,76,0.00,,,0.00,LWC V2.00 B2112,2013-01-23 19:24:00,
2013-01-23 10:29:00,7.3,1.1,29.63,SSW,196,0.0,0.0,75,0.00,,,0.00,LWC V2.00 B2112,2013-01-23 19:29:00,
2013-01-23 10:34:00,7.3,1.4,29.62,North,5,0.0,0.0,76,0.00,,,0.00,LWC V2.00 B2112,2013-01-23 19:34:00,
2013-01-23 10:39:00,7.4,0.9,29.62,ENE,58,0.0,0.0,74,0.00,,,0.00,LWC V2.00 B2112,2013-01-23 19:39:00,
2013-01-23 10:44:00,7.5,1.0,29.62,East,99,0.0,0.0,74,0.00,,,0.00,LWC V2.00 B2112,2013-01-23 19:44:00,
2013-01-23 10:49:00,7.6,1.1,29.62,ENE,62,0.0,0.0,74,0.00,,,0.00,LWC V2.00 B2112,2013-01-23 19:49:00,
2013-01-23 10:54:00,7.5,1.3,29.62,ESE,113,0.0,0.0,75,0.00,,,0.00,LWC V2.00 B2112,2013-01-23 19:54:00,
2013-01-23 10:59:00,7.5,1.3,29.62,ESE,107,0.0,0.0,75,0.00,,,0.00,LWC V2.00 B2112,2013-01-23 19:59:00,
2013-01-23 11:04:00,7.5,0.7,29.62,East,99,0.0,0.0,73,0.00,,,0.00,LWC V2.00 B2112,2013-01-23 20:04:00,
2013-01-23 11:09:00,7.6,0.8,29.62,East,96,0.0,0.0,73,0.00,,,0.00,LWC V2.00 B2112,2013-01-23 20:09:00,
2013-01-23 11:15:00,7.6,0.8,29.62,East,82,0.0,0.0,73,0.00,,,0.00,LWC V2.00 B2112,2013-01-23 20:15:00,
2013-01-23 11:24:00,7.7,0.6,29.61,NNW,343,0.0,0.0,72,0.00,,,0.00,LWC V2.00 B2112,2013-01-23 20:24:00,
2013-01-23 11:29:00,7.7,0.9,29.61,SSE,163,0.0,0.0,73,0.00,,,0.00,LWC V2.00 B2112,2013-01-23 20:29:00,
2013-01-23 11:34:00,7.8,0.7,29.61,ESE,102,0.0,0.0,72,0.00,,,0.00,LWC V2.00 B2112,2013-01-23 20:34:00,
2013-01-23 11:39:00,7.9,0.8,29.61,ENE,69,0.0,0.0,72,0.00,,,0.00,LWC V2.00 B2112,2013-01-23 20:39:00,
2013-01-23 11:44:00,8.0,0.9,29.61,SE,130,0.0,0.0,72,0.00,,,0.00,LWC V2.00 B2112,2013-01-23 20:44:00,
2013-01-23 11:49:00,8.1,1.0,29.61,ENE,73,0.0,0.0,72,0.00,,,0.00,LWC V2.00 B2112,2013-01-23 20:49:00,
2013-01-23 11:54:00,8.1,1.0,29.61,ENE,69,0.0,0.0,72,0.00,,,0.00,LWC V2.00 B2112,2013-01-23 20:54:00,
2013-01-23 11:59:00,8.2,0.5,29.61,ENE,65,0.0,0.0,70,0.00,,,0.00,LWC V2.00 B2112,2013-01-23 20:59:00,
2013-01-23 12:04:00,8.1,0.7,29.61,East,84,0.0,0.0,71,0.00,,,0.00,LWC V2.00 B2112,2013-01-23 21:04:00,
2013-01-23 12:09:00,8.1,1.0,29.61,ESE,109,0.0,0.0,72,0.00,,,0.00,LWC V2.00 B2112,2013-01-23 21:09:00,
2013-01-23 12:15:00,8.2,1.1,29.60,ESE,115,0.0,0.0,72,0.00,,,0.00,LWC V2.00 B2112,2013-01-23 21:15:00,
2013-01-23 12:19:00,8.2,0.5,29.60,East,98,0.0,0.0,70,0.00,,,0.00,LWC V2.00 B2112,2013-01-23 21:19:00,
2013-01-23 12:24:00,8.3,0.9,29.60,ENE,78,0.0,0.0,71,0.00,,,0.00,LWC V2.00 B2112,2013-01-23 21:24:00,
2013-01-23 12:29:00,8.2,1.1,29.60,ESE,123,0.0,0.0,72,0.00,,,0.00,LWC V2.00 B2112,2013-01-23 21:29:00,
2013-01-23 12:34:00,8.3,1.2,29.60,ESE,105,0.0,0.0,72,0.00,,,0.00,LWC V2.00 B2112,2013-01-23 21:34:00,
2013-01-23 12:39:00,8.3,1.2,29.60,ESE,109,0.0,0.0,72,0.00,,,0.00,LWC V2.00 B2112,2013-01-23 21:39:00,
2013-01-23 12:44:00,8.3,1.2,29.60,ESE,109,0.0,0.0,72,0.00,,,0.00,LWC V2.00 B2112,2013-01-23 21:44:00,
2013-01-23 12:49:00,8.3,1.2,29.60,East,91,0.0,0.0,72,0.00,,,0.00,LWC V2.00 B2112,2013-01-23 21:49:00,
2013-01-23 12:54:00,8.4,1.0,29.60,ESE,113,0.0,0.0,71,0.00,,,0.00,LWC V2.00 B2112,2013-01-23 21:54:00,
2013-01-23 12:59:00,8.4,0.7,29.60,East,92,0.0,0.0,70,0.00,,,0.00,LWC V2.00 B2112,2013-01-23 21:59:00,
2013-01-23 13:04:00,8.4,0.7,29.59,East,84,0.0,0.0,70,0.00,,,0.00,LWC V2.00 B2112,2013-01-23 22:04:00,
2013-01-23 13:09:00,8.5,1.1,29.59,SW,220,0.0,0.0,71,0.00,,,0.00,LWC V2.00 B2112,2013-01-23 22:09:00,
2013-01-23 13:14:00,8.4,0.7,29.59,ENE,69,0.0,0.0,70,0.00,,,0.00,LWC V2.00 B2112,2013-01-23 22:14:00,
2013-01-23 13:19:00,8.4,0.7,29.59,SE,132,0.0,0.0,70,0.00,,,0.00,LWC V2.00 B2112,2013-01-23 22:19:00,
2013-01-23 13:25:00,8.3,0.6,29.59,NE,54,0.0,0.0,70,0.00,,,0.00,LWC V2.00 B2112,2013-01-23 22:25:00,
2013-01-23 13:29:00,8.3,0.3,29.59,ESE,113,0.0,0.0,69,0.00,,,0.00,LWC V2.00 B2112,2013-01-23 22:29:00,
2013-01-23 13:34:00,8.2,0.2,29.59,ESE,118,0.0,0.0,69,0.00,,,0.00,LWC V2.00 B2112,2013-01-23 22:34:00,
2013-01-23 13:39:00,8.1,0.4,29.59,ESE,111,0.0,0.0,70,0.00,,,0.00,LWC V2.00 B2112,2013-01-23 22:39:00,
2013-01-23 13:44:00,7.9,0.2,29.59,ESE,120,0.0,0.0,70,0.00,,,0.00,LWC V2.00 B2112,2013-01-23 22:44:00,
2013-01-23 13:49:00,7.8,0.1,29.59,ESE,116,0.0,0.0,70,0.00,,,0.00,LWC V2.00 B2112,2013-01-23 22:49:00,
2013-01-23 13:54:00,7.7,0.0,29.59,East,96,0.0,0.0,70,0.00,,,0.00,LWC V2.00 B2112,2013-01-23 22:54:00,
2013-01-23 13:59:00,7.6,-0.1,29.59,ENE,76,0.0,0.0,70,0.00,,,0.00,LWC V2.00 B2112,2013-01-23 22:59:00,
2013-01-23 14:04:00,7.5,-0.2,29.60,ESE,109,0.0,0.0,70,0.00,,,0.00,LWC V2.00 B2112,2013-01-23 23:04:00,
2013-01-23 14:09:00,7.4,-0.3,29.59,East,99,0.0,0.0,70,0.00,,,0.00,LWC V2.00 B2112,2013-01-23 23:09:00,
2013-01-23 14:14:00,7.3,-0.4,29.59,ESE,119,0.0,0.0,70,0.00,,,0.00,LWC V2.00 B2112,2013-01-23 23:14:00,
2013-01-23 14:19:00,7.2,-0.5,29.59,ESE,113,0.0,0.0,70,0.00,,,0.00,LWC V2.00 B2112,2013-01-23 23:19:00,
2013-01-23 14:24:00,7.2,-0.5,29.59,ESE,103,0.0,0.0,70,0.00,,,0.00,LWC V2.00 B2112,2013-01-23 23:24:00,
2013-01-23 14:29:00,7.1,-0.3,29.59,WSW,249,0.0,0.0,71,0.00,,,0.00,LWC V2.00 B2112,2013-01-23 23:29:00,
2013-01-23 14:34:00,7.1,-0.6,29.59,ENE,58,0.0,0.0,70,0.00,,,0.00,LWC V2.00 B2112,2013-01-23 23:34:00,
2013-01-23 14:39:00,7.0,-0.4,29.59,ESE,113,0.0,0.0,71,0.00,,,0.00,LWC V2.00 B2112,2013-01-23 23:39:00,
2013-01-23 14:44:00,7.0,-0.7,29.59,SSE,163,0.0,0.0,70,0.00,,,0.00,LWC V2.00 B2112,2013-01-23 23:44:00,
2013-01-23 14:49:00,7.0,-0.7,29.59,East,101,0.0,0.0,70,0.00,,,0.00,LWC V2.00 B2112,2013-01-23 23:49:00,
2013-01-23 14:54:00,6.9,-0.8,29.59,ENE,65,0.0,0.0,70,0.00,,,0.00,LWC V2.00 B2112,2013-01-23 23:54:00,
2013-01-23 14:59:00,6.8,-0.6,29.59,North,351,0.0,0.0,71,0.00,,,0.00,LWC V2.00 B2112,2013-01-23 23:59:00,
2013-01-23 15:04:00,6.7,-0.4,29.59,NE,55,0.0,0.0,72,0.00,,,0.00,LWC V2.00 B2112,2013-01-24 00:04:00,
2013-01-23 15:09:00,6.7,-1.0,29.59,East,101,0.0,0.0,70,0.00,,,0.00,LWC V2.00 B2112,2013-01-24 00:09:00,
2013-01-23 15:14:00,6.6,-0.8,29.59,East,80,0.0,0.0,71,0.00,,,0.00,LWC V2.00 B2112,2013-01-24 00:14:00,
2013-01-23 15:19:00,6.6,-1.1,29.59,NW,316,0.0,0.0,70,0.00,,,0.00,LWC V2.00 B2112,2013-01-24 00:19:00,
2013-01-23 15:24:00,6.6,-0.8,29.59,ENE,74,0.0,0.0,71,0.00,,,0.00,LWC V2.00 B2112,2013-01-24 00:24:00,
2013-01-23 15:29:00,6.5,-0.9,29.59,ENE,61,0.0,0.0,71,0.00,,,0.00,LWC V2.00 B2112,2013-01-24 00:29:00,
2013-01-23 15:34:00,6.5,-0.9,29.59,East,88,0.0,0.0,71,0.00,,,0.00,LWC V2.00 B2112,2013-01-24 00:34:00,
2013-01-23 15:39:00,6.5,-0.9,29.59,ENE,73,0.0,0.0,71,0.00,,,0.00,LWC V2.00 B2112,2013-01-24 00:39:00,
2013-01-23 15:44:00,6.4,-1.0,29.59,ESE,120,0.0,0.0,71,0.00,,,0.00,LWC V2.00 B2112,2013-01-24 00:44:00,
2013-01-23 15:49:00,6.5,-0.9,29.59,NE,54,0.0,0.0,71,0.00,,,0.00,LWC V2.00 B2112,2013-01-24 00:49:00,
2013-01-23 15:54:00,6.4,-1.0,29.59,East,86,0.0,0.0,71,0.00,,,0.00,LWC V2.00 B2112,2013-01-24 00:54:00,
2013-01-23 15:59:00,6.4,-1.0,29.59,ESE,123,0.0,0.0,71,0.00,,,0.00,LWC V2.00 B2112,2013-01-24 00:59:00,
2013-01-23 16:04:00,6.4,-1.3,29.59,ESE,109,0.0,0.0,70,0.00,,,0.00,LWC V2.00 B2112,2013-01-24 01:04:00,
2013-01-23 16:09:00,6.4,-1.0,29.59,ESE,107,0.0,0.0,71,0.00,,,0.00,LWC V2.00 B2112,2013-01-24 01:09:00,
2013-01-23 16:14:00,6.3,-1.1,29.58,East,88,0.0,0.0,71,0.00,,,0.00,LWC V2.00 B2112,2013-01-24 01:14:00,
2013-01-23 16:19:00,6.3,-1.4,29.58,ESE,116,0.0,0.0,70,0.00,,,0.00,LWC V2.00 B2112,2013-01-24 01:19:00,
2013-01-23 16:25:00,6.3,-1.4,29.59,SE,132,0.0,0.0,70,0.00,,,0.00,LWC V2.00 B2112,2013-01-24 01:25:00,
2013-01-23 16:34:00,6.2,-1.2,29.59,ESE,120,0.0,0.0,71,0.00,,,0.00,LWC V2.00 B2112,2013-01-24 01:34:00,
2013-01-23 16:39:00,6.2,-1.5,29.59,WNW,300,0.0,0.0,70,0.00,,,0.00,LWC V2.00 B2112,2013-01-24 01:39:00,
2013-01-23 16:44:00,6.2,-1.5,29.59,ESE,112,0.0,0.0,70,0.00,,,0.00,LWC V2.00 B2112,2013-01-24 01:44:00,
2013-01-23 16:49:00,6.2,-1.2,29.59,East,91,0.0,0.0,71,0.00,,,0.00,LWC V2.00 B2112,2013-01-24 01:49:00,
2013-01-23 16:54:00,6.1,-1.3,29.59,ESE,106,0.0,0.0,71,0.00,,,0.00,LWC V2.00 B2112,2013-01-24 01:54:00,
2013-01-23 16:59:00,6.1,-1.5,29.59,East,99,0.0,0.0,70,0.00,,,0.00,LWC V2.00 B2112,2013-01-24 01:59:00,
2013-01-23 17:04:00,6.1,-1.5,29.59,NE,49,0.0,0.0,70,0.00,,,0.00,LWC V2.00 B2112,2013-01-24 02:04:00,
2013-01-23 17:09:00,6.1,-1.5,29.59,East,91,0.0,0.0,70,0.00,,,0.00,LWC V2.00 B2112,2013-01-24 02:09:00,
2013-01-23 17:14:00,6.0,-1.6,29.59,East,95,0.0,0.0,70,0.00,,,0.00,LWC V2.00 B2112,2013-01-24 02:14:00,
2013-01-23 17:19:00,5.9,-1.7,29.59,ENE,77,0.0,0.0,70,0.00,,,0.00,LWC V2.00 B2112,2013-01-24 02:19:00,
2013-01-23 17:24:00,5.9,-1.7,29.59,SSE,153,0.0,0.0,70,0.00,,,0.00,LWC V2.00 B2112,2013-01-24 02:24:00,
2013-01-23 17:29:00,5.9,-2.0,29.59,ESE,119,0.0,0.0,69,0.00,,,0.00,LWC V2.00 B2112,2013-01-24 02:29:00,
2013-01-23 17:34:00,5.8,-1.8,29.59,WSW,249,0.0,0.0,70,0.00,,,0.00,LWC V2.00 B2112,2013-01-24 02:34:00,
2013-01-23 17:39:00,5.8,-1.8,29.59,ESE,117,0.0,0.0,70,0.00,,,0.00,LWC V2.00 B2112,2013-01-24 02:39:00,
2013-01-23 17:44:00,5.8,-1.8,29.59,SE,132,0.0,0.0,70,0.00,,,0.00,LWC V2.00 B2112,2013-01-24 02:44:00,
2013-01-23 17:49:00,5.7,-1.9,29.59,NW,307,0.0,0.0,70,0.00,,,0.00,LWC V2.00 B2112,2013-01-24 02:49:00,
2013-01-23 17:54:00,5.7,-1.9,29.59,SW,228,0.0,0.0,70,0.00,,,0.00,LWC V2.00 B2112,2013-01-24 02:54:00,
2013-01-23 17:59:00,5.6,-2.0,29.59,East,86,0.0,0.0,70,0.00,,,0.00,LWC V2.00 B2112,2013-01-24 02:59:00,
2013-01-23 18:04:00,5.6,-2.3,29.59,ENE,74,0.0,0.0,69,0.00,,,0.00,LWC V2.00 B2112,2013-01-24 03:04:00,
2013-01-23 18:09:00,5.5,-2.4,29.59,SE,138,0.0,0.0,69,0.00,,,0.00,LWC V2.00 B2112,2013-01-24 03:09:00,
2013-01-23 18:14:00,5.5,-2.1,29.59,East,86,0.0,0.0,70,0.00,,,0.00,LWC V2.00 B2112,2013-01-24 03:14:00,
2013-01-23 18:19:00,5.5,-2.4,29.59,ENE,70,0.0,0.0,69,0.00,,,0.00,LWC V2.00 B2112,2013-01-24 03:19:00,
2013-01-23 18:24:00,5.5,-2.1,29.59,SE,125,0.0,0.0,70,0.00,,,0.00,LWC V2.00 B2112,2013-01-24 03:24:00,
2013-01-23 18:29:00,5.4,-2.5,29.59,ESE,105,0.0,0.0,69,0.00,,,0.00,LWC V2.00 B2112,2013-01-24 03:29:00,
2013-01-23 18:34:00,5.4,-2.5,29.59,ENE,66,0.0,0.0,69,0.00,,,0.00,LWC V2.00 B2112,2013-01-24 03:34:00,
2013-01-23 18:39:00,5.3,-2.6,29.59,NE,39,0.0,0.0,69,0.00,,,0.00,LWC V2.00 B2112,2013-01-24 03:39:00,
2013-01-23 18:44:00,5.3,-2.9,29.59,ENE,62,0.0,0.0,68,0.00,,,0.00,LWC V2.00 B2112,2013-01-24 03:44:00,
2013-01-23 18:49:00,5.2,-2.7,29.59,WSW,250,0.0,0.0,69,0.00,,,0.00,LWC V2.00 B2112,2013-01-24 03:49:00,
2013-01-23 18:54:00,5.2,-2.7,29.59,East,82,0.0,0.0,69,0.00,,,0.00,LWC V2.00 B2112,2013-01-24 03:54:00,
2013-01-23 18:59:00,5.2,-2.7,29.59,East,91,0.0,0.0,69,0.00,,,0.00,LWC V2.00 B2112,2013-01-24 03:59:00,
2013-01-23 19:04:00,5.1,-3.1,29.59,East,84,0.0,0.0,68,0.00,,,0.00,LWC V2.00 B2112,2013-01-24 04:04:00,
2013-01-23 19:09:00,5.1,-2.8,29.59,WSW,239,0.0,0.0,69,0.00,,,0.00,LWC V2.00 B2112,2013-01-24 04:09:00,
2013-01-23 19:14:00,5.0,-3.5,29.60,ESE,105,0.0,0.0,67,0.00,,,0.00,LWC V2.00 B2112,2013-01-24 04:14:00,
2013-01-23 19:19:00,5.0,-3.2,29.60,SE,129,0.0,0.0,68,0.00,,,0.00,LWC V2.00 B2112,2013-01-24 04:19:00,
2013-01-23 19:24:00,4.9,-3.6,29.60,ESE,103,0.0,0.0,67,0.00,,,0.00,LWC V2.00 B2112,2013-01-24 04:24:00,
2013-01-23 19:29:00,4.9,-3.6,29.60,SE,132,0.0,0.0,67,0.00,,,0.00,LWC V2.00 B2112,2013-01-24 04:29:00,
2013-01-23 19:34:00,4.8,-3.4,29.60,ESE,102,0.0,0.0,68,0.00,,,0.00,LWC V2.00 B2112,2013-01-24 04:34:00,
2013-01-23 19:39:00,4.8,-3.4,29.60,ENE,63,0.0,0.0,68,0.00,,,0.00,LWC V2.00 B2112,2013-01-24 04:39:00,
2013-01-23 19:44:00,4.7,-3.5,29.60,SE,132,0.0,0.0,68,0.00,,,0.00,LWC V2.00 B2112,2013-01-24 04:44:00,
2013-01-23 19:49:00,4.7,-3.2,29.60,SE,125,0.0,0.0,69,0.00,,,0.00,LWC V2.00 B2112,2013-01-24 04:49:00,
2013-01-23 19:54:00,4.7,-3.5,29.60,WNW,293,0.0,0.0,68,0.00,,,0.00,LWC V2.00 B2112,2013-01-24 04:54:00,
2013-01-23 19:59:00,4.6,-3.6,29.60,ESE,113,0.0,0.0,68,0.00,,,0.00,LWC V2.00 B2112,2013-01-24 04:59:00,
2013-01-23 20:04:00,4.6,-3.3,29.60,SE,132,0.0,0.0,69,0.00,,,0.00,LWC V2.00 B2112,2013-01-24 05:04:00,
2013-01-23 20:09:00,4.4,-4.1,29.60,ESE,108,0.0,0.0,67,0.00,,,0.00,LWC V2.00 B2112,2013-01-24 05:09:00,
2013-01-23 20:14:00,4.3,-4.2,29.60,ENE,78,0.0,0.0,67,0.00,,,0.00,LWC V2.00 B2112,2013-01-24 05:14:00,
2013-01-23 20:19:00,4.3,-4.2,29.60,East,98,0.0,0.0,67,0.00,,,0.00,LWC V2.00 B2112,2013-01-24 05:19:00,
2013-01-23 20:24:00,4.3,-4.2,29.60,East,86,0.0,0.0,67,0.00,,,0.00,LWC V2.00 B2112,2013-01-24 05:24:00,
2013-01-23 20:29:00,4.2,-4.0,29.60,East,95,0.0,0.0,68,0.00,,,0.00,LWC V2.00 B2112,2013-01-24 05:29:00,
2013-01-23 20:34:00,4.1,-4.1,29.60,ENE,74,0.0,0.0,68,0.00,,,0.00,LWC V2.00 B2112,2013-01-24 05:34:00,
2013-01-23 20:39:00,4.1,-4.1,29.60,ESE,109,0.0,0.0,68,0.00,,,0.00,LWC V2.00 B2112,2013-01-24 05:39:00,
2013-01-23 20:44:00,4.0,-4.5,29.61,WSW,254,0.0,0.0,67,0.00,,,0.00,LWC V2.00 B2112,2013-01-24 05:44:00,
2013-01-23 20:49:00,3.9,-4.9,29.61,ENE,77,0.0,0.0,66,0.00,,,0.00,LWC V2.00 B2112,2013-01-24 05:49:00,
2013-01-23 20:54:00,3.8,-5.0,29.61,East,80,0.0,0.0,66,0.00,,,0.00,LWC V2.00 B2112,2013-01-24 05:54:00,
2013-01-23 20:59:00,3.7,-4.8,29.61,ESE,102,0.0,0.0,67,0.00,,,0.00,LWC V2.00 B2112,2013-01-24 05:59:00,
2013-01-23 21:04:00,3.7,-4.8,29.61,South,187,0.0,0.0,67,0.00,,,0.00,LWC V2.00 B2112,2013-01-24 06:04:00,
2013-01-23 21:09:00,3.6,-4.9,29.61,East,90,0.0,0.0,67,0.00,,,0.00,LWC V2.00 B2112,2013-01-24 06:09:00,
2013-01-23 21:14:00,3.6,-5.2,29.61,East,84,0.0,0.0,66,0.00,,,0.00,LWC V2.00 B2112,2013-01-24 06:14:00,
2013-01-23 21:19:00,3.5,-5.3,29.61,ENE,73,0.0,0.0,66,0.00,,,0.00,LWC V2.00 B2112,2013-01-24 06:19:00,
2013-01-23 21:24:00,3.4,-5.4,29.61,NE,40,0.0,0.0,66,0.00,,,0.00,LWC V2.00 B2112,2013-01-24 06:24:00,
2013-01-23 21:29:00,3.4,-5.4,29.61,East,96,0.0,0.0,66,0.00,,,0.00,LWC V2.00 B2112,2013-01-24 06:29:00,
2013-01-23 21:34:00,3.3,-5.5,29.61,ESE,105,0.0,0.0,66,0.00,,,0.00,LWC V2.00 B2112,2013-01-24 06:34:00,
2013-01-23 21:39:00,3.3,-5.2,29.62,ESE,108,0.0,0.0,67,0.00,,,0.00,LWC V2.00 B2112,2013-01-24 06:39:00,
2013-01-23 21:44:00,3.3,-5.2,29.62,SSE,148,0.0,0.0,67,0.00,,,0.00,LWC V2.00 B2112,2013-01-24 06:44:00,
2013-01-23 21:49:00,3.3,-5.5,29.62,East,94,0.0,0.0,66,0.00,,,0.00,LWC V2.00 B2112,2013-01-24 06:49:00,
2013-01-23 21:54:00,3.3,-4.8,29.62,East,88,0.0,0.0,68,0.00,,,0.00,LWC V2.00 B2112,2013-01-24 06:54:00,
2013-01-23 21:59:00,3.3,-5.2,29.62,ENE,69,0.0,0.0,67,0.00,,,0.00,LWC V2.00 B2112,2013-01-24 06:59:00,
2013-01-23 22:04:00,3.2,-4.9,29.62,East,85,0.0,0.0,68,0.00,,,0.00,LWC V2.00 B2112,2013-01-24 07:04:00,
2013-01-23 22:09:00,3.2,-5.2,29.62,ENE,74,0.0,0.0,67,0.00,,,0.00,LWC V2.00 B2112,2013-01-24 07:09:00,
2013-01-23 22:14:00,3.2,-5.6,29.62,ENE,61,0.0,0.0,66,0.00,,,0.00,LWC V2.00 B2112,2013-01-24 07:14:00,
2013-01-23 22:19:00,3.1,-5.7,29.62,ENE,74,0.0,0.0,66,0.00,,,0.00,LWC V2.00 B2112,2013-01-24 07:19:00,
2013-01-23 22:24:00,3.0,-5.4,29.62,East,81,0.0,0.0,67,0.00,,,0.00,LWC V2.00 B2112,2013-01-24 07:24:00,
2013-01-23 22:29:00,3.0,-5.1,29.62,East,95,0.0,0.0,68,0.00,,,0.00,LWC V2.00 B2112,2013-01-24 07:29:00,
2013-01-23 22:34:00,3.0,-5.4,29.62,East,93,0.0,0.0,67,0.00,,,0.00,LWC V2.00 B2112,2013-01-24 07:34:00,
2013-01-23 22:39:00,3.0,-5.4,29.62,ESE,107,0.0,0.0,67,0.00,,,0.00,LWC V2.00 B2112,2013-01-24 07:39:00,
2013-01-23 22:44:00,2.9,-5.8,29.62,ENE,74,0.0,0.0,66,0.00,,,0.00,LWC V2.00 B2112,2013-01-24 07:44:00,
2013-01-23 22:49:00,2.9,-5.8,29.62,ENE,71,0.0,0.0,66,0.00,,,0.00,LWC V2.00 B2112,2013-01-24 07:49:00,
2013-01-23 22:54:00,2.8,-6.3,29.62,East,91,0.0,0.0,65,0.00,,,0.00,LWC V2.00 B2112,2013-01-24 07:54:00,
2013-01-23 22:59:00,2.8,-5.6,29.63,ENE,63,0.0,0.0,67,0.00,,,0.00,LWC V2.00 B2112,2013-01-24 07:59:00,
2013-01-23 23:04:00,2.7,-5.7,29.63,East,91,0.0,0.0,67,0.00,,,0.00,LWC V2.00 B2112,2013-01-24 08:04:00,
2013-01-23 23:09:00,2.7,-5.7,29.63,ENE,59,0.0,0.0,67,0.00,,,0.00,LWC V2.00 B2112,2013-01-24 08:09:00,
2013-01-23 23:14:00,2.6,-6.1,29.63,NNW,340,0.0,0.0,66,0.00,,,0.00,LWC V2.00 B2112,2013-01-24 08:14:00,
2013-01-23 23:19:00,2.5,-6.5,29.63,ENE,63,0.0,0.0,65,0.00,,,0.00,LWC V2.00 B2112,2013-01-24 08:19:00,
2013-01-23 23:24:00,2.5,-6.2,29.63,East,98,0.0,0.0,66,0.00,,,0.00,LWC V2.00 B2112,2013-01-24 08:24:00,
2013-01-23 23:29:00,2.4,-6.3,29.63,East,86,0.0,0.0,66,0.00,,,0.00,LWC V2.00 B2112,2013-01-24 08:29:00,
2013-01-23 23:34:00,2.3,-6.7,29.64,ESE,107,0.0,0.0,65,0.00,,,0.00,LWC V2.00 B2112,2013-01-24 08:34:00,
2013-01-23 23:39:00,2.2,-6.2,29.64,ESE,110,0.0,0.0,67,0.00,,,0.00,LWC V2.00 B2112,2013-01-24 08:39:00,
2013-01-23 23:44:00,2.1,-6.6,29.63,ENE,77,0.0,0.0,66,0.00,,,0.00,LWC V2.00 B2112,2013-01-24 08:44:00,
2013-01-23 23:49:00,2.1,-6.6,29.64,ENE,74,0.0,0.0,66,0.00,,,0.00,LWC V2.00 B2112,2013-01-24 08:49:00,
2013-01-23 23:54:00,2.1,-6.6,29.64,East,90,0.0,0.0,66,0.00,,,0.00,LWC V2.00 B2112,2013-01-24 08:54:00,
2013-01-23 23:59:00,2.0,-6.7,29.64,East,99,0.0,0.0,66,0.00,,,0.00,LWC V2.00 B2112,2013-01-24 08:59:00,